• Join FlightAware (Why Join?)
  • Login
  • US Flag 
04:24AM EDT


 

Airport Tracker/Info


-or-


 

Live Flight TrackerFlight Track Log ✈ JIA2328 ✈ 07-May-2013 ✈ KCLT - KOAJ

Flight Track Log - Related Links

Times and Time Zones

All times are in EDT time to prevent confusion due to time zone crossing. See the JIA2328 flight status page for this flight to view local times or setup timezone preferences in your user account.

Time Position Orientation Groundspeed Altitude Reporting Facility
EDT Latitude Longitude Course Direction KTS MPH feet Rate Location/Type
06:33PM 35.2347 -80.9392 36° Northeast 167 192 1,500  Level Atlanta Center
06:34PM 35.2675 -80.9100 36° Northeast 210 242 3,600 2,700 Climbing Atlanta Center
06:35PM 35.2900 -80.8200 73° East 275 316 7,000 2,100 Climbing Atlanta Center
06:36PM 35.2669 -80.7294 107° East 304 350 8,000 1,200 Climbing Atlanta Center
06:37PM 35.2225 -80.6319 119° Southeast 304 350 9,400 1,800 Climbing Atlanta Center
06:38PM 35.1803 -80.5422 120° Southeast 304 350 11,600 1,980 Climbing Atlanta Center
06:40PM 35.1022 -80.3875 122° Southeast 380 437 14,600 2,040 Climbing Washington Center
06:41PM 35.0464 -80.2650 119° Southeast 386 444 17,000 1,980 Climbing Washington Center
06:42PM 34.9961 -80.1658 122° Southeast 395 455 18,700 960 Climbing Washington Center
06:43PM 34.9594 -80.0344 109° East 395 455 19,000 120 Climbing Washington Center
06:44PM 34.9317 -79.8811 108° East 412 474 19,000  Level Washington Center
06:45PM 34.9283 -79.7339 92° East 423 487 19,000  Level Washington Center
06:46PM 34.9231 -79.5817 92° East 434 499 19,000  Level Washington Center
06:47PM 34.9156 -79.4319 93° East 439 505 19,000  Level Washington Center
06:48PM 34.9097 -79.2872 93° East 439 505 19,000  Level Washington Center
06:49PM 34.9039 -79.1375 93° East 439 505 19,000  Level Washington Center
06:50PM 34.8972 -79.0031 93° East 446 513 19,000 -360 Level Washington Center
06:51PM 34.8911 -78.8533 93° East 441 507 18,400 -1,020 Descending Washington Center
06:52PM 34.8861 -78.7217 93° East 423 487 17,000 -1,500 Descending Washington Center
06:53PM 34.8792 -78.5922 94° East 398 458 15,400 -1,620 Descending Washington Center
06:54PM 34.8717 -78.4728 94° East 376 433 13,800 -1,620 Descending Washington Center
06:55PM 34.8681 -78.3564 92° East 353 406 12,200 -1,680 Descending Washington Center
06:56PM 34.8622 -78.2497 94° East 334 384 10,500 -1,800 Descending Washington Center
06:57PM 34.8558 -78.1508 94° East 310 357 8,700 -1,800 Descending Washington Center
06:58PM 34.8350 -78.0617 106° East 288 331 6,900 -1,980 Descending Washington Center
06:59PM 34.8117 -77.9675 107° East 268 308 4,800 -1,980 Descending Washington Center
07:00PM 34.7925 -77.8858 106° East 256 295 3,100 -900 Descending Washington Center
07:01PM 34.7711 -77.8019 107° East 256 295 3,000 -180 Descending Washington Center
07:01PM 34.7653 -77.7739 104° East 262 302 2,900 -300 Descending Washington Center
07:02PM 34.7539 -77.7231 105° East 250 288 2,700 -540 Descending Washington Center
07:02PM 34.7542 -77.7003 89° East 196 226 2,300 -1,020 Descending Washington Center